Time;durP1;ratioP1;P1;durP2;ratioP2;P2;SDS_P1;SDS_P2;PMS_P1;PMS_P2;Temp;Humidity;BMP_temperature;BMP_pressure;BME280_temperature;BME280_humidity;BME280_pressure;Samples;Min_cycle;Max_cycle;Signal;HPM_P1;HPM_P2
2022/08/29 00:00:11;;;;;;;;;;;;;;;21.99;53.25;101912.00;1033372;28;698;-73
2022/08/29 00:01:01;;;;;;;;;;;;;;;21.98;52.97;101913.00;1033281;28;721;-73
2022/08/29 00:01:51;;;;;;;;;;;;;;;21.97;53.28;101914.00;1032678;28;663;-73
2022/08/29 00:02:42;;;;;;;;;;;;;;;21.96;52.71;101915.84;1033347;28;674;-73
2022/08/29 00:03:32;;;;;;;;;;;;;;;21.96;53.42;101909.56;1033247;28;756;-73
2022/08/29 00:04:23;;;;;;;;;;;;;;;21.97;53.30;101911.28;1033230;28;639;-74
2022/08/29 00:05:13;;;;;;;;;;;;;;;21.96;53.02;101907.72;1033291;28;674;-73
2022/08/29 00:06:04;;;;;;;;;;;;;;;21.96;53.01;101904.13;1033267;28;646;-73
2022/08/29 00:06:54;;;;;;;;;;;;;;;21.94;53.34;101900.72;1028410;28;709;-73
2022/08/29 00:07:44;;;;;;;;;;;;;;;21.94;53.19;101908.84;1024490;29;686;-73
2022/08/29 00:08:35;;;;;;;;;;;;;;;21.94;53.16;101909.72;1028699;28;680;-74
2022/08/29 00:09:25;;;;;;;;;;;;;;;21.95;53.30;101910.56;1029825;28;588;-71
2022/08/29 00:10:16;;;;;;;;;;;;;;;21.93;53.29;101909.84;1029148;28;678;-73
2022/08/29 00:11:06;;;;;;;;;;;;;;;21.93;53.22;101910.72;1029254;28;641;-73
2022/08/29 00:11:57;;;;;;;;;;;;;;;21.95;53.30;101913.28;1028387;28;736;-73
2022/08/29 00:12:47;;;;;;;;;;;;;;;21.94;53.21;101911.56;1029479;28;685;-74
2022/08/29 00:13:38;;;;;;;;;;;;;;;21.93;53.22;101909.84;1029856;28;775;-73
2022/08/29 00:14:28;;;;;;;;;;;;;;;21.91;53.13;101915.44;1029595;28;1464;-71
2022/08/29 00:15:19;;;;;;;;;;;;;;;21.91;53.08;101909.16;1033148;28;647;-73
2022/08/29 00:16:09;;;;;;;;;;;;;;;21.90;53.14;101910.16;1033239;28;661;-73
2022/08/29 00:17:00;;;;;;;;;;;;;;;21.91;53.08;101909.16;1033261;28;594;-73
2022/08/29 00:17:50;;;;;;;;;;;;;;;21.91;53.18;101911.84;1033273;28;708;-74
2022/08/29 00:18:40;;;;;;;;;;;;;;;21.90;53.17;101913.72;1032542;28;630;-71
2022/08/29 00:19:31;;;;;;;;;;;;;;;21.89;53.22;101912.00;1030019;28;1421;-73
2022/08/29 00:20:21;;;;;;;;;;;;;;;21.90;53.19;101912.84;1027755;28;650;-73
2022/08/29 00:21:12;;;;;;;;;;;;;;;21.90;53.18;101904.72;1030791;28;721;-73
2022/08/29 00:22:02;;;;;;;;;;;;;;;21.89;52.95;101916.56;1023661;29;638;-73
2022/08/29 00:22:53;;;;;;;;;;;;;;;21.88;53.07;101904.88;1026546;28;689;-73
2022/08/29 00:23:43;;;;;;;;;;;;;;;21.89;53.22;101909.28;1024931;29;638;-73
2022/08/29 00:24:33;;;;;;;;;;;;;;;21.89;53.06;101908.44;1025388;28;634;-71
2022/08/29 00:25:24;;;;;;;;;;;;;;;21.88;53.45;101909.44;1029258;28;654;-73
2022/08/29 00:26:14;;;;;;;;;;;;;;;21.88;53.12;101907.56;1029716;28;677;-72
2022/08/29 00:27:05;;;;;;;;;;;;;;;21.87;53.13;101902.28;1030732;28;657;-73
2022/08/29 00:27:55;;;;;;;;;;;;;;;21.87;53.23;101905.88;1031032;28;649;-73
2022/08/29 00:28:46;;;;;;;;;;;;;;;21.88;53.08;101904.88;1030820;28;671;-73
2022/08/29 00:29:36;;;;;;;;;;;;;;;21.84;53.10;101908.91;1030975;28;701;-73
2022/08/29 00:30:27;;;;;;;;;;;;;;;21.85;53.21;101901.63;1030809;28;802;-73
2022/08/29 00:31:17;;;;;;;;;;;;;;;21.84;53.25;101906.19;1030444;28;1412;-73
2022/08/29 00:32:07;;;;;;;;;;;;;;;21.83;53.40;101905.31;1033194;28;614;-73
2022/08/29 00:32:58;;;;;;;;;;;;;;;21.84;53.13;101906.19;1033533;28;704;-73
2022/08/29 00:33:50;;;;;;;;;;;;;;;21.86;53.20;101903.28;1032610;28;656;-73
2022/08/29 00:34:40;;;;;;;;;;;;;;;21.84;53.25;101906.19;1032690;28;669;-73
2022/08/29 00:35:30;;;;;;;;;;;;;;;21.83;53.30;101899.91;1028284;28;706;-73
2022/08/29 00:36:22;;;;;;;;;;;;;;;21.82;53.23;101909.03;1028361;28;634;-73
2022/08/29 00:37:12;;;;;;;;;;;;;;;21.82;53.15;101903.63;1033060;28;642;-73
2022/08/29 00:38:03;;;;;;;;;;;;;;;21.83;53.44;101909.91;1032668;28;685;-73
2022/08/29 00:38:53;;;;;;;;;;;;;;;21.83;53.32;101909.91;1033134;28;638;-73
2022/08/29 00:39:44;;;;;;;;;;;;;;;21.82;53.43;101909.03;1033131;28;697;-73
2022/08/29 00:40:34;;;;;;;;;;;;;;;21.80;53.26;101905.63;1032658;28;682;-73
2022/08/29 00:41:24;;;;;;;;;;;;;;;21.82;53.37;101908.19;1033134;28;650;-73
2022/08/29 00:42:15;;;;;;;;;;;;;;;21.80;53.32;101908.31;1033110;28;658;-73
2022/08/29 00:43:05;;;;;;;;;;;;;;;21.80;53.59;101908.31;1032963;28;1503;-73
2022/08/29 00:43:56;;;;;;;;;;;;;;;21.79;53.51;101909.31;1030719;28;643;-73
2022/08/29 00:44:46;;;;;;;;;;;;;;;21.79;53.33;101914.75;1028159;28;682;-73
2022/08/29 00:45:36;;;;;;;;;;;;;;;21.80;53.66;101913.75;1030266;28;655;-73
2022/08/29 00:46:27;;;;;;;;;;;;;;;21.79;53.53;101912.03;1030654;28;625;-72
2022/08/29 00:47:18;;;;;;;;;;;;;;;21.79;53.43;101914.75;1030830;28;623;-72
2022/08/29 00:48:08;;;;;;;;;;;;;;;21.79;53.65;101913.91;1029758;28;636;-72
2022/08/29 00:48:59;;;;;;;;;;;;;;;21.79;53.60;101914.75;1030762;28;720;-72
2022/08/29 00:49:49;;;;;;;;;;;;;;;21.79;53.65;101914.75;1030778;28;1902;-73
2022/08/29 00:50:40;;;;;;;;;;;;;;;21.78;53.63;101907.63;1030829;28;673;-72
2022/08/29 00:51:30;;;;;;;;;;;;;;;21.79;53.80;101925.63;1034573;28;1330;-73
2022/08/29 00:52:20;;;;;;;;;;;;;;;21.77;53.85;101919.47;1033024;28;600;-73
2022/08/29 00:53:11;;;;;;;;;;;;;;;21.78;53.64;101920.31;1027159;28;1317;-73
2022/08/29 00:54:01;;;;;;;;;;;;;;;21.77;53.64;101922.19;1028045;28;647;-73
2022/08/29 00:54:52;;;;;;;;;;;;;;;21.76;53.59;101922.31;1032401;28;653;-73
2022/08/29 00:55:42;;;;;;;;;;;;;;;21.77;53.49;101922.19;1033173;28;619;-72
2022/08/29 00:56:33;;;;;;;;;;;;;;;21.76;53.82;101915.03;1028103;28;670;-73
2022/08/29 00:57:23;;;;;;;;;;;;;;;21.76;53.58;101920.47;1028194;28;670;-73
2022/08/29 00:58:13;;;;;;;;;;;;;;;21.75;53.78;101913.34;1033445;28;807;-73
2022/08/29 00:59:04;;;;;;;;;;;;;;;21.75;53.55;101916.03;1028280;28;758;-73
2022/08/29 00:59:54;;;;;;;;;;;;;;;21.74;53.88;101919.75;1027535;28;1393;-73
2022/08/29 01:00:45;;;;;;;;;;;;;;;21.74;53.77;101913.47;1033449;28;693;-72
2022/08/29 01:01:35;;;;;;;;;;;;;;;21.74;53.89;101908.91;1032995;28;1314;-73
2022/08/29 01:02:27;;;;;;;;;;;;;;;21.74;53.87;101911.63;1033607;28;649;-73
2022/08/29 01:03:17;;;;;;;;;;;;;;;21.75;53.99;101918.75;1033718;28;688;-73
2022/08/29 01:04:08;;;;;;;;;;;;;;;21.74;53.77;101922.47;1033702;28;681;-72
2022/08/29 01:04:59;;;;;;;;;;;;;;;21.73;53.77;101918.03;1033637;28;584;-72
2022/08/29 01:05:50;;;;;;;;;;;;;;;21.74;53.86;101922.47;1033638;28;808;-72
2022/08/29 01:06:40;;;;;;;;;;;;;;;21.74;54.00;101921.63;1033704;28;787;-73
2022/08/29 01:07:31;;;;;;;;;;;;;;;21.74;53.75;101922.47;1033592;28;634;-72
2022/08/29 01:08:22;;;;;;;;;;;;;;;21.74;54.02;101933.31;1033542;28;701;-72
2022/08/29 01:09:12;;;;;;;;;;;;;;;21.75;53.86;101926.91;1033620;28;592;-72
2022/08/29 01:10:03;;;;;;;;;;;;;;;21.74;53.82;101930.59;1033013;28;1922;-72
2022/08/29 01:12:14;;;;;;;;;;;;;;;21.73;54.11;101926.19;1033653;28;670;-72
2022/08/29 01:13:05;;;;;;;;;;;;;;;21.72;54.10;101926.31;1033067;28;658;-72
2022/08/29 01:13:55;;;;;;;;;;;;;;;21.72;53.96;101926.31;1033012;28;686;-72
2022/08/29 01:14:46;;;;;;;;;;;;;;;21.71;53.93;101927.31;1033127;28;646;-72
2022/08/29 01:15:37;;;;;;;;;;;;;;;21.71;53.77;101921.91;1032966;28;634;-72
2022/08/29 01:16:27;;;;;;;;;;;;;;;21.72;53.63;101929.03;1032918;28;662;-72
2022/08/29 01:17:18;;;;;;;;;;;;;;;21.71;53.59;101921.91;1032972;28;586;-73
2022/08/29 01:18:08;;;;;;;;;;;;;;;21.69;54.00;101924.75;1032996;28;638;-73
2022/08/29 01:18:59;;;;;;;;;;;;;;;21.69;53.81;101930.19;1032908;28;611;-73
2022/08/29 01:19:49;;;;;;;;;;;;;;;21.70;53.75;101934.59;1033016;28;814;-73
2022/08/29 01:20:40;;;;;;;;;;;;;;;21.69;53.86;101924.75;1033010;28;739;-73
2022/08/29 01:21:30;;;;;;;;;;;;;;;21.69;53.83;101926.63;1031032;28;1309;-73
2022/08/29 01:22:21;;;;;;;;;;;;;;;21.68;53.97;101927.63;1030719;28;684;-73
2022/08/29 01:23:11;;;;;;;;;;;;;;;21.68;53.90;101928.47;1030423;28;1444;-72
2022/08/29 01:24:01;;;;;;;;;;;;;;;21.68;53.99;101924.91;1027809;28;690;-72
2022/08/29 01:24:52;;;;;;;;;;;;;;;21.67;53.75;101926.78;1030563;28;676;-72
2022/08/29 01:25:42;;;;;;;;;;;;;;;21.67;53.91;101929.50;1030846;28;610;-72
2022/08/29 01:26:33;;;;;;;;;;;;;;;21.67;53.92;101931.34;1030640;28;634;-73
2022/08/29 01:27:23;;;;;;;;;;;;;;;21.66;54.00;101927.78;1027887;28;725;-73
2022/08/29 01:28:13;;;;;;;;;;;;;;;21.65;53.89;101934.22;1030777;28;610;-72
2022/08/29 01:29:04;;;;;;;;;;;;;;;21.64;53.95;101927.06;1030124;28;633;-73
2022/08/29 01:29:54;;;;;;;;;;;;;;;21.64;54.11;101928.94;1030782;28;1946;-73
2022/08/29 01:30:45;;;;;;;;;;;;;;;21.64;54.21;101931.66;1032599;28;1467;-73
2022/08/29 01:31:35;;;;;;;;;;;;;;;21.62;53.97;101920.94;1032489;28;709;-73
2022/08/29 01:32:25;;;;;;;;;;;;;;;21.62;54.13;101923.66;1032833;28;654;-72
2022/08/29 01:33:16;;;;;;;;;;;;;;;21.63;54.13;101929.94;1032925;28;696;-73
2022/08/29 01:34:06;;;;;;;;;;;;;;;21.63;53.98;101925.34;1033008;28;630;-73
2022/08/29 01:34:57;;;;;;;;;;;;;;;21.62;53.99;101922.78;1032937;28;662;-73
2022/08/29 01:35:47;;;;;;;;;;;;;;;21.63;53.94;101921.78;1032987;28;841;-73
2022/08/29 01:36:38;;;;;;;;;;;;;;;21.62;53.96;101923.66;1032866;28;709;-72
2022/08/29 01:37:28;;;;;;;;;;;;;;;21.61;54.00;101918.38;1032845;28;675;-72
2022/08/29 01:38:26;;;;;;;;;;;;;;;21.61;53.89;101924.66;1027986;28;689;-72
2022/08/29 01:39:17;;;;;;;;;;;;;;;21.61;54.13;101926.50;1029218;28;637;-72
2022/08/29 01:40:07;;;;;;;;;;;;;;;21.60;53.85;101919.38;1033543;28;717;-72
2022/08/29 01:40:58;;;;;;;;;;;;;;;21.59;54.07;101923.94;1029313;28;1483;-72
2022/08/29 01:41:48;;;;;;;;;;;;;;;21.58;53.99;101919.50;1023578;29;745;-72
2022/08/29 01:42:39;;;;;;;;;;;;;;;21.58;53.79;101924.06;1025201;28;705;-72
2022/08/29 01:43:30;;;;;;;;;;;;;;;21.57;53.91;101920.50;1029006;28;614;-72
2022/08/29 01:44:20;;;;;;;;;;;;;;;21.58;53.88;101922.22;1029499;28;651;-72
2022/08/29 01:45:11;;;;;;;;;;;;;;;21.58;53.79;101926.78;1030573;28;622;-72
2022/08/29 01:46:01;;;;;;;;;;;;;;;21.57;54.04;101928.63;1027637;28;626;-72
2022/08/29 01:46:53;;;;;;;;;;;;;;;21.56;53.88;101928.78;1030600;28;634;-72
2022/08/29 01:47:43;;;;;;;;;;;;;;;21.55;53.95;101936.06;1027569;28;718;-73
2022/08/29 01:48:34;;;;;;;;;;;;;;;21.55;53.63;101933.34;1030528;28;728;-73
2022/08/29 01:49:24;;;;;;;;;;;;;;;21.54;53.78;101931.63;1034495;28;675;-73
2022/08/29 01:50:14;;;;;;;;;;;;;;;21.55;53.77;101927.94;1032730;28;1874;-72
2022/08/29 01:51:05;;;;;;;;;;;;;;;21.54;53.91;101930.78;1032910;28;701;-73
2022/08/29 01:51:55;;;;;;;;;;;;;;;21.54;53.65;101931.63;1032884;28;771;-73
2022/08/29 01:52:46;;;;;;;;;;;;;;;21.54;53.28;101928.06;1027930;28;1207;-73
2022/08/29 01:53:36;;;;;;;;;;;;;;;21.52;53.91;101936.34;1028577;28;667;-73
2022/08/29 01:54:27;;;;;;;;;;;;;;;21.51;53.79;101929.22;1032092;28;626;-73
2022/08/29 01:55:17;;;;;;;;;;;;;;;21.51;53.65;101942.78;1033749;28;629;-73
2022/08/29 01:56:08;;;;;;;;;;;;;;;21.51;53.83;101937.34;1033563;28;681;-73
2022/08/29 01:56:59;;;;;;;;;;;;;;;21.52;53.79;101933.63;1033380;28;665;-73
2022/08/29 01:57:50;;;;;;;;;;;;;;;21.51;53.88;101929.22;1033440;28;618;-73
2022/08/29 01:58:40;;;;;;;;;;;;;;;21.51;53.72;101936.50;1033344;28;598;-73
2022/08/29 01:59:30;;;;;;;;;;;;;;;21.53;53.66;101929.06;1030012;28;1116;-73
2022/08/29 02:00:21;;;;;;;;;;;;;;;21.51;54.24;101929.22;1028735;28;652;-71
2022/08/29 02:01:11;;;;;;;;;;;;;;;21.51;53.71;101926.50;1031864;28;1440;-71
2022/08/29 02:02:02;;;;;;;;;;;;;;;21.50;53.84;101929.38;1028028;28;647;-72
2022/08/29 02:02:52;;;;;;;;;;;;;;;21.48;53.71;101924.09;1027953;28;618;-72
2022/08/29 02:03:44;;;;;;;;;;;;;;;21.50;53.68;101932.09;1032107;28;716;-72
2022/08/29 02:04:34;;;;;;;;;;;;;;;21.48;53.66;101924.94;1033321;28;657;-72
2022/08/29 02:05:25;;;;;;;;;;;;;;;21.47;53.66;101909.69;1032845;28;646;-72
2022/08/29 02:06:15;;;;;;;;;;;;;;;21.47;53.85;101927.81;1032896;28;662;-71
2022/08/29 02:07:06;;;;;;;;;;;;;;;21.47;53.82;101919.66;1032985;28;711;-72
2022/08/29 02:07:56;;;;;;;;;;;;;;;21.47;53.74;101925.09;1032844;28;650;-72
2022/08/29 02:08:47;;;;;;;;;;;;;;;21.47;53.69;101922.38;1032771;28;634;-72
2022/08/29 02:09:38;;;;;;;;;;;;;;;21.46;53.75;101920.66;1032829;28;669;-72
2022/08/29 02:10:29;;;;;;;;;;;;;;;21.46;53.82;101912.53;1032390;28;770;-73
2022/08/29 02:11:19;;;;;;;;;;;;;;;21.46;53.77;101917.97;1032058;28;1468;-72
2022/08/29 02:12:10;;;;;;;;;;;;;;;21.45;53.69;101910.81;1030585;28;692;-73
2022/08/29 02:13:00;;;;;;;;;;;;;;;21.44;53.57;101915.38;1030417;28;691;-73
2022/08/29 02:13:51;;;;;;;;;;;;;;;21.45;53.75;101910.81;1027690;28;697;-72
2022/08/29 02:14:41;;;;;;;;;;;;;;;21.44;53.65;101903.69;1028831;28;696;-72
2022/08/29 02:15:32;;;;;;;;;;;;;;;21.45;53.74;101913.53;1027681;28;659;-73
2022/08/29 02:16:22;;;;;;;;;;;;;;;21.43;53.74;101912.81;1027780;28;1084;-72
2022/08/29 02:17:12;;;;;;;;;;;;;;;21.43;53.82;101912.81;1030567;28;650;-73
2022/08/29 02:18:03;;;;;;;;;;;;;;;21.42;53.90;101914.66;1030537;28;626;-74
2022/08/29 02:18:53;;;;;;;;;;;;;;;21.41;53.98;101907.53;1030700;28;603;-73
2022/08/29 02:19:44;;;;;;;;;;;;;;;21.41;53.84;101921.09;1030460;28;625;-73
2022/08/29 02:20:35;;;;;;;;;;;;;;;21.42;53.83;101911.09;1029388;28;681;-73
2022/08/29 02:21:25;;;;;;;;;;;;;;;21.41;53.69;101910.25;1030218;28;681;-73
2022/08/29 02:22:16;;;;;;;;;;;;;;;21.41;53.83;101909.38;1023415;29;639;-73
2022/08/29 02:23:06;;;;;;;;;;;;;;;21.42;53.98;101922.81;1024474;29;658;-73
2022/08/29 02:23:57;;;;;;;;;;;;;;;21.41;53.77;101914.81;1031954;28;1229;-73
2022/08/29 02:24:47;;;;;;;;;;;;;;;21.41;53.82;101922.94;1032381;28;669;-73
2022/08/29 02:25:41;;;;;;;;;;;;;;;21.40;54.03;101921.22;1032771;28;775;-73
2022/08/29 02:26:31;;;;;;;;;;;;;;;21.40;53.95;101913.97;1032875;28;657;-73
2022/08/29 02:27:21;;;;;;;;;;;;;;;21.40;53.82;101922.09;1032338;28;747;-73
2022/08/29 02:28:12;;;;;;;;;;;;;;;21.39;53.91;101916.81;1032790;28;677;-73
2022/08/29 02:29:02;;;;;;;;;;;;;;;21.40;53.79;101926.66;1032810;28;725;-73
2022/08/29 02:29:53;;;;;;;;;;;;;;;21.39;53.88;101919.53;1032690;28;1983;-73
2022/08/29 02:30:44;;;;;;;;;;;;;;;21.39;53.91;101923.09;1032288;28;701;-73
2022/08/29 02:31:35;;;;;;;;;;;;;;;21.37;53.88;101919.66;1033320;28;889;-73
2022/08/29 02:32:26;;;;;;;;;;;;;;;21.36;53.99;101917.94;1032888;28;638;-73
2022/08/29 02:33:16;;;;;;;;;;;;;;;21.37;54.07;101924.22;1028041;28;650;-73
2022/08/29 02:34:07;;;;;;;;;;;;;;;21.38;54.00;101925.94;1027830;28;662;-73
2022/08/29 02:34:57;;;;;;;;;;;;;;;21.38;53.68;101924.09;1031926;28;705;-73
2022/08/29 02:35:48;;;;;;;;;;;;;;;21.38;53.82;101920.50;1031971;28;1226;-73
2022/08/29 02:36:38;;;;;;;;;;;;;;;21.37;53.91;101918.81;1028719;28;653;-74
2022/08/29 02:37:29;;;;;;;;;;;;;;;21.36;54.17;101914.38;1028190;28;650;-74
2022/08/29 02:38:19;;;;;;;;;;;;;;;21.35;53.97;101927.06;1028320;28;708;-73
2022/08/29 02:39:09;;;;;;;;;;;;;;;21.36;53.84;101922.50;1028173;28;701;-74
2022/08/29 02:40:00;;;;;;;;;;;;;;;21.34;54.01;101919.94;1028259;28;693;-73
2022/08/29 02:40:50;;;;;;;;;;;;;;;21.34;54.04;101919.09;1027794;28;654;-74
2022/08/29 02:41:41;;;;;;;;;;;;;;;21.33;54.17;101912.81;1027741;28;626;-73
2022/08/29 02:42:31;;;;;;;;;;;;;;;21.33;53.92;101914.66;1028255;28;634;-74
2022/08/29 02:43:23;;;;;;;;;;;;;;;21.33;53.98;101917.38;1028145;28;746;-74
2022/08/29 02:44:13;;;;;;;;;;;;;;;21.33;53.96;101915.50;1030859;28;1380;-74
2022/08/29 02:45:04;;;;;;;;;;;;;;;21.32;53.95;101919.22;1030139;28;665;-74
2022/08/29 02:45:55;;;;;;;;;;;;;;;21.33;53.79;101923.66;1030151;28;701;-74
2022/08/29 02:46:45;;;;;;;;;;;;;;;21.33;53.92;101917.38;1028525;28;689;-74
2022/08/29 02:47:36;;;;;;;;;;;;;;;21.33;54.09;101917.38;1031241;28;649;-74
2022/08/29 02:48:26;;;;;;;;;;;;;;;21.31;54.04;101919.41;1031170;28;769;-74
2022/08/29 02:49:16;;;;;;;;;;;;;;;21.32;53.89;101926.50;1031462;28;1140;-74
2022/08/29 02:50:07;;;;;;;;;;;;;;;21.31;53.95;101916.69;1024023;29;1914;-74
2022/08/29 02:50:58;;;;;;;;;;;;;;;21.30;53.92;101918.53;1026839;28;689;-73
2022/08/29 02:51:48;;;;;;;;;;;;;;;21.29;53.94;101924.97;1030098;28;644;-74
2022/08/29 02:52:38;;;;;;;;;;;;;;;21.29;53.93;101926.81;1031374;28;712;-74
2022/08/29 02:53:29;;;;;;;;;;;;;;;21.30;54.04;101923.09;1035239;28;669;-73
2022/08/29 02:54:20;;;;;;;;;;;;;;;21.29;53.90;101921.41;1032412;28;1433;-73
2022/08/29 02:55:10;;;;;;;;;;;;;;;21.30;53.90;101923.09;1033553;28;685;-74
2022/08/29 02:56:01;;;;;;;;;;;;;;;21.31;54.03;101932.97;1033077;28;715;-74
2022/08/29 02:56:51;;;;;;;;;;;;;;;21.30;53.92;101929.38;1028586;28;701;-73
2022/08/29 02:57:42;;;;;;;;;;;;;;;21.30;53.71;101933.94;1028662;28;702;-73
2022/08/29 02:58:33;;;;;;;;;;;;;;;21.28;53.94;101925.97;1032906;28;725;-73
2022/08/29 02:59:23;;;;;;;;;;;;;;;21.28;53.88;101925.97;1033496;28;790;-73
2022/08/29 03:00:15;;;;;;;;;;;;;;;21.27;53.81;101924.25;1025531;28;705;-73
2022/08/29 03:01:05;;;;;;;;;;;;;;;21.29;54.01;101926.81;1026091;28;673;-73
2022/08/29 03:01:56;;;;;;;;;;;;;;;21.27;54.09;101921.53;1025533;28;583;-74
2022/08/29 03:02:46;;;;;;;;;;;;;;;21.27;54.15;101934.22;1027315;28;1453;-73
2022/08/29 03:03:36;;;;;;;;;;;;;;;21.27;54.01;101923.38;1021822;29;642;-73
2022/08/29 03:04:27;;;;;;;;;;;;;;;21.27;53.98;101929.66;1021302;29;667;-73
2022/08/29 03:05:17;;;;;;;;;;;;;;;21.27;54.11;101923.38;1021929;28;630;-73
2022/08/29 03:06:08;;;;;;;;;;;;;;;21.27;54.11;101920.69;1021571;29;630;-73
2022/08/29 03:06:58;;;;;;;;;;;;;;;21.26;54.07;101922.53;1021531;29;650;-73
2022/08/29 03:07:50;;;;;;;;;;;;;;;21.24;54.21;101929.94;1021483;29;698;-73
2022/08/29 03:08:42;;;;;;;;;;;;;;;21.25;54.10;101926.25;1021620;29;713;-73
2022/08/29 03:09:33;;;;;;;;;;;;;;;21.25;54.07;101926.25;1022020;28;681;-73
2022/08/29 03:10:23;;;;;;;;;;;;;;;21.26;53.92;101924.38;1021697;29;737;-73
2022/08/29 03:11:14;;;;;;;;;;;;;;;21.25;54.07;101928.09;1021684;29;659;-73
2022/08/29 03:12:05;;;;;;;;;;;;;;;21.25;54.13;101928.09;1022307;28;706;-73
2022/08/29 03:12:55;;;;;;;;;;;;;;;21.25;54.01;101933.50;1023445;28;1491;-73
2022/08/29 03:13:46;;;;;;;;;;;;;;;21.25;54.05;101925.38;1026063;28;729;-73
2022/08/29 03:14:36;;;;;;;;;;;;;;;21.25;54.24;101928.94;1026012;28;591;-73
2022/08/29 03:15:26;;;;;;;;;;;;;;;21.25;53.92;101930.81;1026018;28;678;-73
2022/08/29 03:16:17;;;;;;;;;;;;;;;21.24;53.97;101935.38;1026082;28;614;-73
2022/08/29 03:17:07;;;;;;;;;;;;;;;21.24;54.03;101929.09;1028138;28;686;-73
2022/08/29 03:17:58;;;;;;;;;;;;;;;21.24;54.35;101932.66;1028537;28;622;-73
2022/08/29 03:18:48;;;;;;;;;;;;;;;21.24;54.36;101927.25;1025058;29;566;-73
2022/08/29 03:19:39;;;;;;;;;;;;;;;21.24;54.30;101920.97;1027966;28;691;-73
2022/08/29 03:20:29;;;;;;;;;;;;;;;21.23;54.61;101927.38;1028604;28;635;-73
2022/08/29 03:21:20;;;;;;;;;;;;;;;21.23;54.07;101930.94;1024964;29;662;-73
2022/08/29 03:22:10;;;;;;;;;;;;;;;21.22;54.19;101922.94;1026045;28;554;-73
2022/08/29 03:23:01;;;;;;;;;;;;;;;21.22;54.23;101931.94;1026046;28;741;-73
2022/08/29 03:23:51;;;;;;;;;;;;;;;21.23;54.22;101930.94;1025915;28;650;-73
2022/08/29 03:24:41;;;;;;;;;;;;;;;21.22;54.32;101923.81;1026088;28;671;-73
2022/08/29 03:25:32;;;;;;;;;;;;;;;21.21;54.17;101924.81;1026032;28;753;-73
2022/08/29 03:26:22;;;;;;;;;;;;;;;21.22;54.16;101925.66;1025948;28;669;-73
2022/08/29 03:27:13;;;;;;;;;;;;;;;21.22;54.21;101925.66;1025967;28;638;-73
2022/08/29 03:28:03;;;;;;;;;;;;;;;21.23;54.12;101924.66;1025850;28;642;-73
2022/08/29 03:28:53;;;;;;;;;;;;;;;21.21;54.41;101930.22;1024807;28;674;-72
2022/08/29 03:29:44;;;;;;;;;;;;;;;21.20;54.36;101923.09;1025982;28;693;-73
2022/08/29 03:30:34;;;;;;;;;;;;;;;21.21;54.37;101924.81;1025893;28;662;-73
2022/08/29 03:31:25;;;;;;;;;;;;;;;21.21;54.33;101923.94;1025977;28;644;-73
2022/08/29 03:32:15;;;;;;;;;;;;;;;21.21;54.35;101923.94;1025885;28;910;-73
2022/08/29 03:33:06;;;;;;;;;;;;;;;21.21;54.37;101918.53;1022033;28;686;-73
2022/08/29 03:33:56;;;;;;;;;;;;;;;21.21;54.33;101919.38;1021984;28;685;-73
2022/08/29 03:34:46;;;;;;;;;;;;;;;21.19;54.24;101910.50;1021088;29;610;-73
2022/08/29 03:35:37;;;;;;;;;;;;;;;21.19;54.24;101910.50;1021723;29;694;-73
2022/08/29 03:36:28;;;;;;;;;;;;;;;21.19;54.28;101915.06;1021875;29;717;-73
2022/08/29 03:37:18;;;;;;;;;;;;;;;21.18;54.20;101914.22;1021466;29;1421;-73
2022/08/29 03:38:09;;;;;;;;;;;;;;;21.19;54.36;101906.94;1021122;29;607;-73
2022/08/29 03:38:59;;;;;;;;;;;;;;;21.19;54.38;101912.34;1022479;28;773;-73
2022/08/29 03:39:49;;;;;;;;;;;;;;;21.19;54.52;101907.78;1021032;29;764;-73
2022/08/29 03:40:40;;;;;;;;;;;;;;;21.20;54.34;101911.38;1021920;28;677;-72
2022/08/29 03:41:30;;;;;;;;;;;;;;;21.20;54.29;101905.97;1021391;29;607;-73
2022/08/29 03:42:21;;;;;;;;;;;;;;;21.18;54.26;101910.63;1021384;29;667;-72
2022/08/29 03:43:11;;;;;;;;;;;;;;;21.18;54.22;101905.22;1021915;28;675;-73
2022/08/29 03:44:02;;;;;;;;;;;;;;;21.17;54.40;101903.50;1021911;28;709;-73
2022/08/29 03:44:52;;;;;;;;;;;;;;;21.17;54.44;101904.34;1021407;29;733;-73
2022/08/29 03:45:43;;;;;;;;;;;;;;;21.17;54.35;101904.34;1021969;28;634;-73
2022/08/29 03:46:38;;;;;;;;;;;;;;;21.17;54.26;101907.06;1021960;28;636;-73
2022/08/29 03:47:28;;;;;;;;;;;;;;;21.18;54.31;101902.50;1021836;28;674;-72
2022/08/29 03:48:18;;;;;;;;;;;;;;;21.17;54.57;101907.06;1021972;28;690;-72
2022/08/29 03:49:09;;;;;;;;;;;;;;;21.18;54.38;101902.50;1024163;28;1456;-73
2022/08/29 03:50:00;;;;;;;;;;;;;;;21.17;54.45;101906.22;1024161;29;1898;-72
2022/08/29 03:50:50;;;;;;;;;;;;;;;21.17;54.39;101903.50;1025770;28;658;-72
2022/08/29 03:51:41;;;;;;;;;;;;;;;21.16;54.23;101899.94;1024793;29;653;-72
2022/08/29 03:52:31;;;;;;;;;;;;;;;21.17;54.33;101904.34;1025851;28;607;-72
2022/08/29 03:53:21;;;;;;;;;;;;;;;21.17;54.47;101903.50;1021378;29;647;-72
2022/08/29 03:54:12;;;;;;;;;;;;;;;21.17;54.46;101903.50;1021468;28;634;-72
2022/08/29 03:55:03;;;;;;;;;;;;;;;21.15;54.22;101899.06;1021190;28;649;-73
2022/08/29 03:55:53;;;;;;;;;;;;;;;21.15;54.43;101898.22;1021879;28;650;-73
2022/08/29 03:56:44;;;;;;;;;;;;;;;21.15;54.35;101901.78;1021931;28;906;-72
2022/08/29 03:57:35;;;;;;;;;;;;;;;21.16;54.43;101899.94;1021572;29;705;-72
2022/08/29 03:58:25;;;;;;;;;;;;;;;21.15;54.41;101904.50;1021478;29;713;-72
2022/08/29 03:59:16;;;;;;;;;;;;;;;21.15;54.16;101904.50;1021832;29;635;-72
2022/08/29 04:00:10;;;;;;;;;;;;;;;21.13;54.36;101901.09;1021835;28;666;-72
2022/08/29 04:01:00;;;;;;;;;;;;;;;21.13;54.16;101895.69;1025227;28;1233;-72
2022/08/29 04:01:51;;;;;;;;;;;;;;;21.14;54.35;101897.38;1024417;29;682;-72
2022/08/29 04:02:41;;;;;;;;;;;;;;;21.13;54.54;101898.38;1025533;28;728;-72
2022/08/29 04:03:32;;;;;;;;;;;;;;;21.13;54.56;101901.09;1025809;28;618;-72
2022/08/29 04:05:31;;;;;;;;;;;;;;;21.13;54.43;101894.81;1025749;28;666;-73
2022/08/29 04:06:22;;;;;;;;;;;;;;;21.14;54.56;101896.50;1026541;28;676;-72
2022/08/29 04:07:13;;;;;;;;;;;;;;;21.13;54.35;101897.53;1026342;28;694;-72
2022/08/29 04:08:04;;;;;;;;;;;;;;;21.12;54.68;101893.97;1026422;28;654;-72
2022/08/29 04:08:54;;;;;;;;;;;;;;;21.13;54.23;101895.69;1025747;28;1408;-72
2022/08/29 04:09:45;;;;;;;;;;;;;;;21.12;54.26;101902.09;1025851;28;637;-72
2022/08/29 04:10:36;;;;;;;;;;;;;;;21.12;54.32;101893.09;1025565;28;1400;-72
2022/08/29 04:11:27;;;;;;;;;;;;;;;21.12;54.45;101890.41;1027730;28;671;-73
2022/08/29 04:12:18;;;;;;;;;;;;;;;21.11;54.36;101894.09;1028319;28;686;-72
2022/08/29 04:13:08;;;;;;;;;;;;;;;21.09;54.25;101894.25;1024882;29;733;-73
2022/08/29 04:13:58;;;;;;;;;;;;;;;21.11;54.44;101896.81;1025878;28;756;-71
2022/08/29 04:14:49;;;;;;;;;;;;;;;21.11;54.46;101899.53;1025877;28;618;-72
2022/08/29 04:15:39;;;;;;;;;;;;;;;21.11;54.51;101896.81;1025806;28;705;-71
2022/08/29 04:16:30;;;;;;;;;;;;;;;21.11;54.38;101892.25;1025831;28;692;-72
2022/08/29 04:17:20;;;;;;;;;;;;;;;21.09;54.46;101896.97;1025742;28;662;-72
2022/08/29 04:18:11;;;;;;;;;;;;;;;21.08;54.65;101892.53;1025702;28;627;-72
2022/08/29 04:19:01;;;;;;;;;;;;;;;21.09;54.44;101894.25;1025327;28;1635;-72
2022/08/29 04:19:51;;;;;;;;;;;;;;;21.09;54.60;101894.25;1025717;28;669;-72
2022/08/29 04:20:43;;;;;;;;;;;;;;;21.10;54.37;101895.09;1025764;28;895;-72
2022/08/29 04:21:34;;;;;;;;;;;;;;;21.09;54.56;101896.97;1025840;28;649;-71
2022/08/29 04:22:24;;;;;;;;;;;;;;;21.10;54.44;101890.53;1024820;28;651;-71
2022/08/29 04:23:14;;;;;;;;;;;;;;;21.09;54.69;101894.25;1024972;28;669;-72
2022/08/29 04:24:05;;;;;;;;;;;;;;;21.09;54.30;101888.81;1025789;28;689;-72
2022/08/29 04:24:55;;;;;;;;;;;;;;;21.09;54.45;101896.09;1025697;28;650;-72
2022/08/29 04:25:46;;;;;;;;;;;;;;;21.08;54.46;101887.09;1025734;28;700;-72
2022/08/29 04:26:36;;;;;;;;;;;;;;;21.09;54.58;101893.38;1024751;29;664;-72
2022/08/29 04:27:26;;;;;;;;;;;;;;;21.08;54.45;101892.53;1021514;29;653;-72
2022/08/29 04:28:17;;;;;;;;;;;;;;;21.08;54.54;101895.25;1022206;28;639;-72